Time;durP1;ratioP1;P1;durP2;ratioP2;P2;SDS_P1;SDS_P2;PMS_P1;PMS_P2;Temp;Humidity;BMP_temperature;BMP_pressure;BME280_temperature;BME280_humidity;BME280_pressure;Samples;Min_cycle;Max_cycle;Signal;HPM_P1;HPM_P2
2020/12/09 02:54:28;;;;;;;11.22;4.65;;;;;;;0.56;50.46;101731.25;1849961;74;22698;-80
2020/12/09 02:56:56;;;;;;;10.95;5.67;;;;;;;0.48;50.53;101727.14;1822201;76;21145;-81
2020/12/09 02:59:24;;;;;;;13.28;6.28;;;;;;;0.48;50.59;101740.78;1818393;79;21121;-81
2020/12/09 03:01:52;;;;;;;8.08;4.92;;;;;;;0.40;50.62;101736.27;1819531;78;21502;-81
2020/12/09 03:04:20;;;;;;;11.10;5.70;;;;;;;0.34;50.89;101737.38;1818468;78;21058;-84
2020/12/09 03:06:48;;;;;;;13.43;6.35;;;;;;;0.38;50.93;101742.08;1818297;79;21062;-85
2020/12/09 03:09:16;;;;;;;12.00;5.40;;;;;;;0.46;50.96;101740.85;1817492;77;21122;-81
2020/12/09 03:11:44;;;;;;;7.97;5.55;;;;;;;0.55;50.96;101741.41;1817436;79;21365;-81
2020/12/09 03:14:12;;;;;;;10.98;5.62;;;;;;;0.59;50.95;101738.58;1739736;82;21093;-81
2020/12/09 03:16:39;;;;;;;10.88;5.42;;;;;;;0.61;51.02;101735.41;1767180;81;21069;-82
2020/12/09 03:19:07;;;;;;;12.65;6.12;;;;;;;0.62;51.00;101740.22;1766744;81;21112;-82
2020/12/09 03:21:35;;;;;;;9.48;4.95;;;;;;;0.55;51.11;101740.94;1766746;81;21563;-80
2020/12/09 03:24:03;;;;;;;10.25;6.17;;;;;;;0.54;51.12;101754.16;1766663;81;21819;-82
2020/12/09 03:26:30;;;;;;;9.85;5.90;;;;;;;0.49;51.21;101770.17;1766665;81;21105;-82
2020/12/09 03:29:08;;;;;;;11.08;4.80;;;;;;;0.49;51.52;101747.77;1767106;81;21041;-79
2020/12/09 03:31:35;;;;;;;14.47;6.00;;;;;;;0.54;51.74;101756.80;1752110;79;21144;-81
2020/12/09 03:34:04;;;;;;;10.88;4.90;;;;;;;0.55;51.78;101765.13;1735410;82;21125;-79
2020/12/09 03:36:31;;;;;;;13.75;5.95;;;;;;;0.57;51.79;101742.19;1794814;79;21291;-80
2020/12/09 03:38:59;;;;;;;9.63;5.60;;;;;;;0.58;51.82;101747.85;1817768;79;21153;-81
2020/12/09 03:41:27;;;;;;;15.55;7.67;;;;;;;0.57;51.85;101752.73;1817789;79;21085;-79
2020/12/09 03:43:55;;;;;;;10.85;6.47;;;;;;;0.59;51.96;101753.52;1817141;79;21113;-79
2020/12/09 03:46:23;;;;;;;14.87;6.83;;;;;;;0.61;52.03;101745.09;1817732;78;21635;-79
2020/12/09 03:48:50;;;;;;;10.20;6.20;;;;;;;0.65;52.10;101744.91;1818205;79;21798;-83
2020/12/09 03:51:19;;;;;;;11.50;6.25;;;;;;;0.64;52.12;101748.48;1817805;79;21169;-83
2020/12/09 03:53:47;;;;;;;13.05;6.65;;;;;;;0.66;52.29;101753.21;1807914;79;21169;-82
2020/12/09 03:56:16;;;;;;;11.22;6.30;;;;;;;0.73;52.16;101751.20;1802499;79;21498;-81
2020/12/09 03:58:43;;;;;;;11.85;5.42;;;;;;;0.77;52.19;101747.48;1802429;79;21161;-79
2020/12/09 04:01:11;;;;;;;12.58;6.65;;;;;;;0.82;52.07;101753.45;1802285;79;22561;-82
2020/12/09 04:03:39;;;;;;;11.88;5.83;;;;;;;0.84;51.94;101755.55;1802218;79;21166;-80
2020/12/09 04:06:07;;;;;;;12.43;6.47;;;;;;;0.88;51.93;101760.24;1801153;79;21185;-82
2020/12/09 04:08:35;;;;;;;12.43;5.72;;;;;;;0.89;51.83;101764.59;1787855;79;21133;-81
2020/12/09 04:11:03;;;;;;;12.85;7.08;;;;;;;0.84;51.77;101768.73;1779518;78;21173;-80
2020/12/09 04:13:31;;;;;;;11.03;6.12;;;;;;;0.80;51.75;101754.42;1800866;79;21343;-79
2020/12/09 04:15:58;;;;;;;15.43;6.95;;;;;;;0.80;51.82;101752.64;1787642;79;21062;-80
2020/12/09 04:18:26;;;;;;;10.08;5.12;;;;;;;0.81;51.80;101753.03;1770684;81;21154;-79
2020/12/09 04:20:54;;;;;;;13.68;5.20;;;;;;;0.83;51.88;101752.52;1769650;81;21161;-80
2020/12/09 04:23:22;;;;;;;11.20;6.00;;;;;;;0.84;51.97;101750.73;1770921;81;21066;-79
2020/12/09 04:25:50;;;;;;;15.43;6.60;;;;;;;0.81;51.99;101753.03;1771171;81;21474;-78
2020/12/09 04:28:17;;;;;;;10.20;5.30;;;;;;;0.68;52.25;101748.75;1771206;81;21157;-80
2020/12/09 04:30:45;;;;;;;14.23;6.10;;;;;;;0.69;52.34;101739.05;1771652;78;21121;-79
2020/12/09 04:33:14;;;;;;;11.63;6.37;;;;;;;0.66;52.47;101747.08;1769415;81;21225;-80
2020/12/09 04:35:42;;;;;;;13.93;5.58;;;;;;;0.79;52.41;101739.53;1769367;81;21240;-78
2020/12/09 04:38:11;;;;;;;14.50;7.08;;;;;;;0.86;52.36;101736.55;1770005;81;21196;-79
2020/12/09 04:40:39;;;;;;;11.80;6.30;;;;;;;0.88;52.25;101747.91;1769838;81;21644;-80
2020/12/09 04:43:07;;;;;;;11.60;6.45;;;;;;;0.85;52.26;101751.13;1794571;78;21184;-79
2020/12/09 04:45:35;;;;;;;12.40;6.37;;;;;;;0.78;52.48;101757.14;1801466;79;21521;-79
2020/12/09 04:48:12;;;;;;;13.72;7.12;;;;;;;0.71;52.71;101760.47;1801653;79;21185;-77
2020/12/09 04:51:11;;;;;;;12.35;6.33;;;;;;;0.71;52.73;101750.38;1802458;79;22216;-76
2020/12/09 04:53:42;;;;;;;13.28;7.37;;;;;;;0.75;52.73;101751.98;1794718;78;21205;-79
2020/12/09 04:56:10;;;;;;;14.53;7.35;;;;;;;0.75;52.80;101745.38;1786825;78;21114;-80
2020/12/09 04:58:42;;;;;;;11.40;5.92;;;;;;;0.85;52.77;101742.75;1775385;79;21154;-78
2020/12/09 05:01:13;;;;;;;13.50;7.53;;;;;;;0.89;52.66;101781.73;1785382;78;21031;-81
2020/12/09 05:03:44;;;;;;;13.93;7.22;;;;;;;0.70;52.88;101743.40;1803014;79;21360;-79
2020/12/09 05:06:14;;;;;;;17.15;7.67;;;;;;;0.60;53.29;101738.97;1802741;79;21075;-82
2020/12/09 05:08:55;;;;;;;9.13;5.03;;;;;;;0.58;53.36;101732.89;1803151;79;21166;-79
2020/12/09 05:11:27;;;;;;;13.43;6.95;;;;;;;0.62;53.50;101737.58;1797111;79;21158;-78
2020/12/09 05:13:56;;;;;;;13.88;7.15;;;;;;;0.65;53.60;101738.31;1792862;79;21205;-79
2020/12/09 05:16:24;;;;;;;13.25;7.45;;;;;;;0.69;53.84;101734.64;1790846;79;21457;-79
2020/12/09 05:18:58;;;;;;;13.03;6.53;;;;;;;0.64;54.13;101733.12;1794091;78;21165;-79
2020/12/09 05:21:26;;;;;;;15.80;7.15;;;;;;;0.64;54.38;101739.25;1799893;79;21114;-77
2020/12/09 05:23:59;;;;;;;13.10;6.45;;;;;;;0.62;54.57;101746.80;1800798;79;21078;-78
2020/12/09 05:26:31;;;;;;;13.65;7.78;;;;;;;0.55;54.82;101744.89;1739175;82;21127;-76
2020/12/09 05:29:16;;;;;;;15.48;7.28;;;;;;;0.58;55.03;101759.72;1770082;81;21215;-77
2020/12/09 05:31:49;;;;;;;14.98;7.00;;;;;;;0.62;55.06;101748.13;1808565;79;21133;-77
2020/12/09 05:34:29;;;;;;;12.70;6.87;;;;;;;0.63;55.16;101747.20;1769369;81;21187;-77
2020/12/09 05:37:02;;;;;;;14.95;8.08;;;;;;;0.70;55.02;101753.48;1808968;79;21097;-78
2020/12/09 05:39:30;;;;;;;16.50;7.55;;;;;;;0.74;55.03;101763.45;1792043;78;21237;-78
2020/12/09 05:42:00;;;;;;;10.25;5.47;;;;;;;0.79;55.26;101760.62;1777514;79;21204;-79
2020/12/09 05:44:28;;;;;;;14.98;7.17;;;;;;;0.73;55.29;101756.01;1778308;79;21166;-78
2020/12/09 05:47:01;;;;;;;15.78;7.58;;;;;;;0.70;55.33;101750.00;1772345;80;21291;-78
2020/12/09 05:49:37;;;;;;;15.93;7.35;;;;;;;0.73;55.42;101756.47;1786052;79;21197;-79
2020/12/09 05:52:11;;;;;;;18.40;8.23;;;;;;;0.77;55.55;101768.58;1784675;79;21182;-80
2020/12/09 05:54:43;;;;;;;17.77;8.78;;;;;;;0.68;55.72;101762.36;1775877;78;22193;-80
2020/12/09 05:57:19;;;;;;;19.30;8.03;;;;;;;0.66;55.86;101758.95;1773009;79;21129;-78
2020/12/09 05:59:49;;;;;;;15.68;8.28;;;;;;;0.69;55.92;101765.42;1781623;79;21103;-77
2020/12/09 06:02:20;;;;;;;19.07;8.35;;;;;;;0.68;56.15;101761.05;1787104;78;21121;-77
2020/12/09 06:04:52;;;;;;;21.68;9.73;;;;;;;0.69;56.23;101762.33;1772988;79;21416;-77
2020/12/09 06:07:21;;;;;;;15.43;7.80;;;;;;;0.82;55.90;101770.59;1777132;79;22150;-78
2020/12/09 06:10:16;;;;;;;15.88;7.95;;;;;;;0.81;55.91;101779.87;1786989;78;21121;-78
2020/12/09 06:12:56;;;;;;;13.05;7.80;;;;;;;0.82;55.97;101771.91;1785682;79;21113;-79
2020/12/09 06:15:30;;;;;;;21.95;9.18;;;;;;;0.83;56.11;101778.05;1777662;78;21735;-79
2020/12/09 06:18:13;;;;;;;18.98;8.35;;;;;;;0.83;55.97;101784.17;1777999;79;21890;-79
2020/12/09 06:20:43;;;;;;;14.87;8.70;;;;;;;0.84;55.83;101788.52;1787026;78;21339;-77
2020/12/09 06:23:16;;;;;;;17.12;8.78;;;;;;;0.83;55.65;101796.51;1744635;79;21950;-77
2020/12/09 06:25:51;;;;;;;21.15;10.40;;;;;;;0.84;55.61;101789.84;1741885;79;21116;-78
2020/12/09 06:28:23;;;;;;;18.35;8.75;;;;;;;0.82;55.63;101786.42;1729009;80;21110;-78
2020/12/09 06:30:56;;;;;;;20.17;9.08;;;;;;;0.82;55.63;101793.02;1728493;82;21169;-79
2020/12/09 06:33:38;;;;;;;27.52;12.07;;;;;;;0.74;55.87;101805.19;1781272;78;22254;-77
2020/12/09 06:36:24;;;;;;;19.12;9.50;;;;;;;0.74;55.93;101793.78;1801779;78;21132;-77
2020/12/09 06:39:11;;;;;;;16.50;9.58;;;;;;;0.78;56.04;101784.83;1783894;78;21071;-76
2020/12/09 06:42:00;;;;;;;18.73;9.78;;;;;;;0.84;55.98;101796.44;1758535;79;21090;-76
2020/12/09 06:44:32;;;;;;;20.88;10.03;;;;;;;1.33;55.20;101796.16;1789037;78;21186;-78
2020/12/09 06:47:03;;;;;;;20.52;10.43;;;;;;;0.97;55.87;101797.64;1773849;78;22814;-79
2020/12/09 06:49:36;;;;;;;17.10;10.18;;;;;;;0.96;56.22;101791.12;1743460;79;21407;-77
2020/12/09 06:52:19;;;;;;;20.30;9.38;;;;;;;1.11;56.21;101797.06;1777479;78;21213;-77
2020/12/09 06:54:48;;;;;;;18.07;9.53;;;;;;;1.33;56.22;101796.16;1777283;78;21614;-78
2020/12/09 06:57:36;;;;;;;22.48;10.93;;;;;;;1.29;56.44;101803.81;1786682;78;21094;-79
2020/12/09 07:00:15;;;;;;;28.85;13.22;;;;;;;1.31;56.42;101800.16;1779431;78;21954;-76
2020/12/09 07:02:46;;;;;;;26.87;13.13;;;;;;;1.28;56.15;101804.73;1786817;78;21118;-76
2020/12/09 07:05:19;;;;;;;27.27;15.53;;;;;;;1.86;55.02;101802.16;1785483;79;21125;-78
2020/12/09 07:07:49;;;;;;;27.67;15.38;;;;;;;1.74;55.05;101807.08;1782752;79;20969;-79
2020/12/09 07:10:23;;;;;;;27.37;13.95;;;;;;;1.46;56.00;101814.04;1783891;78;21217;-78
2020/12/09 07:13:11;;;;;;;36.08;16.60;;;;;;;1.48;56.22;101808.22;1786999;78;21361;-80
2020/12/09 07:15:47;;;;;;;32.33;15.18;;;;;;;1.48;56.37;101821.42;1785490;78;21046;-78
2020/12/09 07:18:15;;;;;;;31.40;14.07;;;;;;;1.30;56.79;101820.03;1725344;82;21120;-79
2020/12/09 07:20:43;;;;;;;21.37;10.35;;;;;;;1.21;57.00;101817.32;1728695;80;21589;-79
2020/12/09 07:23:12;;;;;;;21.90;9.98;;;;;;;1.15;57.22;101813.63;1728575;81;21107;-79
2020/12/09 07:25:43;;;;;;;16.50;9.90;;;;;;;1.17;57.35;101809.98;1772855;78;21709;-79
2020/12/09 07:28:12;;;;;;;19.87;10.15;;;;;;;1.24;57.42;101820.70;1771934;79;21357;-78
2020/12/09 07:30:39;;;;;;;20.37;10.75;;;;;;;1.30;57.43;101824.00;1719445;81;21562;-78
2020/12/09 07:33:07;;;;;;;23.65;11.03;;;;;;;1.61;56.72;101822.22;1731477;82;21262;-78
2020/12/09 07:35:35;;;;;;;18.00;10.32;;;;;;;1.68;56.46;101816.61;1728316;80;21193;-79
2020/12/09 07:38:03;;;;;;;25.60;12.10;;;;;;;1.86;55.96;101820.18;1786147;79;21226;-77
2020/12/09 07:40:33;;;;;;;18.60;10.18;;;;;;;1.73;55.93;101830.93;1726088;79;21648;-79
2020/12/09 07:43:10;;;;;;;33.33;17.05;;;;;;;1.53;56.28;101833.95;1785152;78;21110;-78
2020/12/09 07:45:43;;;;;;;31.10;15.03;;;;;;;1.33;56.66;101827.84;1780659;78;21086;-79
2020/12/09 07:48:15;;;;;;;22.25;12.73;;;;;;;1.32;56.93;101833.58;1790038;78;21101;-78
2020/12/09 07:50:48;;;;;;;26.42;11.43;;;;;;;1.43;56.89;101844.53;1790336;78;22204;-79
2020/12/09 07:53:16;;;;;;;22.27;9.83;;;;;;;1.26;57.25;101832.03;1788012;78;21197;-79
2020/12/09 07:55:44;;;;;;;23.38;10.70;;;;;;;1.56;56.81;101834.77;1794610;78;21220;-78
2020/12/09 07:58:14;;;;;;;21.82;9.65;;;;;;;1.37;57.03;101830.74;1788384;78;21126;-78
2020/12/09 08:00:48;;;;;;;14.45;8.38;;;;;;;1.31;57.26;101834.48;1790499;78;21090;-78
2020/12/09 08:03:26;;;;;;;15.53;8.33;;;;;;;1.37;57.25;101845.27;1788707;77;21361;-77
2020/12/09 08:05:57;;;;;;;20.90;10.43;;;;;;;1.31;57.30;101841.55;1786821;78;21580;-77
2020/12/09 08:08:31;;;;;;;18.52;9.13;;;;;;;1.29;57.38;101836.34;1785018;79;21107;-78
2020/12/09 08:11:07;;;;;;;21.17;10.08;;;;;;;1.18;57.66;101842.52;1750266;79;21110;-77
2020/12/09 08:13:35;;;;;;;19.07;9.03;;;;;;;1.14;57.67;101843.13;1793484;77;21711;-79
2020/12/09 08:16:11;;;;;;;18.52;9.50;;;;;;;1.19;57.78;101830.59;1792998;77;21355;-76
2020/12/09 08:18:40;;;;;;;20.70;9.88;;;;;;;1.20;57.98;101826.17;1788317;79;21185;-79
2020/12/09 08:21:09;;;;;;;22.17;11.20;;;;;;;1.22;58.00;101822.98;1779330;78;21756;-78
2020/12/09 08:23:50;;;;;;;19.65;9.68;;;;;;;1.40;57.73;101823.98;1806935;78;21589;-77
2020/12/09 08:26:30;;;;;;;17.02;8.68;;;;;;;1.45;57.40;101824.22;1792113;77;22095;-80
2020/12/09 08:28:58;;;;;;;21.70;9.70;;;;;;;1.31;57.89;101816.47;1780989;78;21295;-78
2020/12/09 08:31:28;;;;;;;20.55;11.20;;;;;;;1.24;57.96;101824.66;1777572;78;22319;-78
2020/12/09 08:33:59;;;;;;;12.45;7.03;;;;;;;1.16;58.05;101818.84;1761079;79;21186;-76
2020/12/09 08:36:30;;;;;;;17.95;9.30;;;;;;;1.18;58.26;101814.80;1787003;78;21222;-77
2020/12/09 08:39:01;;;;;;;15.80;8.38;;;;;;;1.22;58.20;101809.80;1786586;78;21341;-80
2020/12/09 08:41:35;;;;;;;18.98;9.15;;;;;;;1.28;58.28;101817.94;1782062;78;22383;-76
2020/12/09 08:44:06;;;;;;;14.03;7.78;;;;;;;1.35;58.19;101817.59;1784378;78;21148;-81
2020/12/09 08:46:35;;;;;;;15.85;7.83;;;;;;;1.34;58.04;101811.92;1790028;78;21090;-78
2020/12/09 08:49:10;;;;;;;15.98;8.93;;;;;;;1.46;57.50;101807.44;1776288;79;21181;-79
2020/12/09 08:51:41;;;;;;;17.98;8.75;;;;;;;1.28;57.99;101814.84;1751069;79;21616;-78
2020/12/09 08:54:13;;;;;;;19.20;10.05;;;;;;;1.40;57.82;101806.36;1788545;78;21878;-79
2020/12/09 08:56:44;;;;;;;21.35;10.28;;;;;;;1.29;58.24;101806.45;1788302;78;21203;-77
2020/12/09 08:59:19;;;;;;;15.35;8.05;;;;;;;1.25;58.32;101814.48;1784973;78;21169;-78
2020/12/09 09:01:49;;;;;;;16.37;8.63;;;;;;;1.32;57.82;101815.53;1788969;78;21098;-79
2020/12/09 09:04:18;;;;;;;16.48;8.50;;;;;;;1.23;57.79;101810.22;1782510;78;21561;-80
2020/12/09 09:06:47;;;;;;;19.82;9.70;;;;;;;1.18;57.98;101797.65;1779724;79;21919;-77
2020/12/09 09:09:29;;;;;;;21.10;10.50;;;;;;;1.18;57.89;101812.16;1784970;78;21114;-79
2020/12/09 09:12:00;;;;;;;19.52;9.03;;;;;;;1.09;57.89;101793.65;1768564;78;21648;-81
2020/12/09 09:14:31;;;;;;;17.77;8.98;;;;;;;1.01;58.42;101796.59;1726544;81;21462;-79
2020/12/09 09:17:11;;;;;;;15.18;7.53;;;;;;;1.05;58.51;101789.42;1725812;80;21174;-79
2020/12/09 09:19:45;;;;;;;20.15;9.28;;;;;;;1.17;58.39;101786.70;1794040;77;21539;-80
2020/12/09 09:22:15;;;;;;;17.57;8.93;;;;;;;1.27;57.99;101784.06;1749658;79;21172;-80
2020/12/09 09:24:44;;;;;;;17.37;8.05;;;;;;;1.32;57.79;101804.55;1735736;80;21209;-80
2020/12/09 09:27:18;;;;;;;21.52;10.35;;;;;;;1.33;57.46;101805.39;1730788;82;21584;-81
2020/12/09 09:29:51;;;;;;;20.05;10.40;;;;;;;1.24;57.14;101803.55;1730279;81;21134;-80
2020/12/09 09:32:30;;;;;;;19.48;9.70;;;;;;;1.18;57.26;101791.05;1779569;79;21257;-80
2020/12/09 09:34:59;;;;;;;23.42;10.60;;;;;;;1.18;57.37;101797.65;1766814;78;21133;-80
2020/12/09 09:37:28;;;;;;;23.07;10.20;;;;;;;1.15;57.52;101796.48;1781292;79;21110;-80
2020/12/09 09:39:57;;;;;;;21.12;10.35;;;;;;;1.19;57.48;101788.84;1777994;78;21097;-81
2020/12/09 09:42:25;;;;;;;19.20;9.25;;;;;;;1.25;57.56;101792.52;1784950;78;21231;-82
2020/12/09 09:44:54;;;;;;;21.62;10.45;;;;;;;1.31;57.52;101791.39;1767012;79;21205;-79
2020/12/09 09:47:22;;;;;;;18.12;9.90;;;;;;;1.49;57.21;101782.67;1777020;79;21209;-81
2020/12/09 09:49:52;;;;;;;23.67;11.00;;;;;;;1.46;57.24;101777.55;1779348;78;21589;-80
2020/12/09 09:52:20;;;;;;;17.42;8.45;;;;;;;1.50;57.16;101784.41;1782731;78;21216;-83
2020/12/09 09:54:48;;;;;;;16.95;8.53;;;;;;;1.47;56.87;101781.42;1774720;79;21225;-80
2020/12/09 09:57:23;;;;;;;18.15;9.93;;;;;;;1.50;56.43;101783.09;1780957;78;21258;-81
2020/12/09 09:59:51;;;;;;;23.45;11.88;;;;;;;1.43;56.46;101786.91;1765913;78;21169;-82
2020/12/09 10:02:20;;;;;;;16.27;8.88;;;;;;;1.58;56.09;101778.30;1773319;79;21154;-81
2020/12/09 10:04:48;;;;;;;16.48;8.78;;;;;;;1.60;56.14;101784.39;1778231;78;21577;-79
2020/12/09 10:07:17;;;;;;;19.52;9.48;;;;;;;1.62;56.13;101777.70;1786945;78;21169;-81
2020/12/09 10:09:50;;;;;;;18.25;9.43;;;;;;;1.75;55.64;101774.91;1787845;78;22046;-81
2020/12/09 10:12:18;;;;;;;16.05;8.63;;;;;;;1.79;55.44;101794.98;1763686;79;21205;-79
2020/12/09 10:14:49;;;;;;;20.20;10.20;;;;;;;1.78;55.16;101778.28;1724824;81;21291;-80
2020/12/09 10:17:27;;;;;;;15.70;9.20;;;;;;;1.66;55.07;101784.10;1726973;81;21246;-84
2020/12/09 10:20:06;;;;;;;18.95;9.68;;;;;;;1.50;55.38;101777.81;1750441;79;21147;-83
2020/12/09 10:22:34;;;;;;;15.68;7.17;;;;;;;1.30;56.11;101778.66;1721066;82;21244;-81
2020/12/09 10:25:13;;;;;;;19.20;10.10;;;;;;;1.33;56.38;101783.81;1718899;80;21065;-80
2020/12/09 10:27:47;;;;;;;20.15;9.28;;;;;;;1.36;56.20;101783.66;1777035;78;21201;-80
2020/12/09 10:30:20;;;;;;;16.62;8.95;;;;;;;1.35;55.98;101789.87;1784117;78;21190;-79
2020/12/09 10:32:54;;;;;;;23.18;11.83;;;;;;;1.30;56.04;101773.84;1779748;78;21188;-79
2020/12/09 10:35:31;;;;;;;25.05;12.95;;;;;;;1.26;56.32;101764.73;1788807;79;21357;-82
2020/12/09 10:38:00;;;;;;;18.00;9.07;;;;;;;1.35;56.37;101764.80;1780879;79;21249;-80
2020/12/09 10:40:30;;;;;;;17.23;10.00;;;;;;;1.28;56.39;101775.24;1780163;79;21178;-81
2020/12/09 10:43:01;;;;;;;21.93;11.35;;;;;;;1.24;56.63;101777.61;1783950;78;21269;-81
2020/12/09 10:45:28;;;;;;;18.77;9.98;;;;;;;1.18;56.75;101773.90;1779944;78;21204;-82
2020/12/09 10:47:57;;;;;;;17.60;10.60;;;;;;;1.14;56.79;101762.64;1778624;79;21389;-82
2020/12/09 10:50:25;;;;;;;16.45;8.68;;;;;;;1.15;56.73;101766.13;1783158;79;21127;-81
2020/12/09 10:52:54;;;;;;;18.50;10.82;;;;;;;1.04;57.04;101768.36;1785046;78;21098;-81
2020/12/09 10:55:23;;;;;;;16.77;8.05;;;;;;;1.05;57.14;101762.18;1784484;78;21168;-82
2020/12/09 10:57:51;;;;;;;16.77;8.80;;;;;;;1.10;57.18;101768.11;1776319;79;21250;-81
2020/12/09 11:00:19;;;;;;;17.02;9.23;;;;;;;1.10;56.89;101762.84;1780846;78;21177;-82
2020/12/09 11:02:47;;;;;;;19.73;10.28;;;;;;;1.14;56.71;101770.55;1786783;79;21235;-81
2020/12/09 11:05:16;;;;;;;21.93;10.23;;;;;;;1.06;56.93;101766.52;1780048;79;21626;-82
2020/12/09 11:11:20;;;;;;;18.75;9.55;;;;;;;0.93;57.01;101769.67;1778740;78;21620;-83
2020/12/09 11:13:54;;;;;;;18.55;8.85;;;;;;;1.06;56.57;101771.80;1785058;78;21216;-81
2020/12/09 11:16:22;;;;;;;20.48;9.58;;;;;;;1.11;56.34;101764.55;1783995;78;21750;-82
2020/12/09 11:18:50;;;;;;;16.30;9.65;;;;;;;1.12;56.48;101767.58;1778346;79;21177;-81
2020/12/09 11:21:20;;;;;;;20.20;10.35;;;;;;;1.17;56.52;101761.17;1783801;79;21189;-82
2020/12/09 11:23:49;;;;;;;16.95;9.98;;;;;;;1.13;56.54;101770.14;1790127;77;21251;-83
2020/12/09 11:26:20;;;;;;;19.45;8.55;;;;;;;1.13;56.48;101764.86;1721758;81;23297;-82
2020/12/09 11:28:48;;;;;;;17.52;9.45;;;;;;;1.24;56.36;101757.81;1731992;80;21137;-82
2020/12/09 11:31:22;;;;;;;13.95;8.45;;;;;;;1.15;56.57;101762.17;1789224;79;21126;-84
2020/12/09 11:36:44;;;;;;;16.37;9.33;;;;;;;1.23;56.64;101771.95;1874166;74;22869;-84
2020/12/09 11:39:15;;;;;;;19.30;9.63;;;;;;;1.18;56.32;101758.06;1846080;77;21176;-85
2020/12/09 11:41:46;;;;;;;16.77;9.88;;;;;;;1.13;56.22;101757.41;1848540;76;22030;-84
2020/12/09 11:44:25;;;;;;;23.77;11.95;;;;;;;1.15;56.29;101755.11;1732109;80;21212;-83
2020/12/09 11:47:05;;;;;;;;;;;;;;;;;;;;;
2020/12/09 11:50:12;;;;;;;17.73;9.33;;;;;;;1.32;56.03;101753.07;1869014;75;22877;-82
2020/12/09 11:52:51;;;;;;;19.45;10.53;;;;;;;1.25;55.79;101743.69;1757997;80;21180;-82
2020/12/09 11:55:28;;;;;;;17.50;10.32;;;;;;;1.20;55.81;101745.67;1815266;77;21436;-83
2020/12/09 11:58:06;;;;;;;17.62;8.35;;;;;;;1.11;56.10;101756.63;1796241;78;21480;-83
2020/12/09 12:11:23;;;;;;;17.62;9.28;;;;;;;1.41;55.71;101731.55;1838905;77;21955;-83
2020/12/09 12:13:56;;;;;;;25.02;13.00;;;;;;;1.36;55.66;101744.06;1804183;77;21624;-84
2020/12/09 12:16:24;;;;;;;40.25;21.77;;;;;;;1.36;55.76;101740.10;1815333;77;21284;-80
2020/12/09 12:18:53;;;;;;;26.30;14.28;;;;;;;1.30;56.04;101750.09;1816538;77;21198;-82
2020/12/09 12:21:27;;;;;;;18.48;9.90;;;;;;;1.33;56.20;101752.14;1812162;77;21101;-79
2020/12/09 12:24:19;;;;;;;21.77;11.97;;;;;;;1.31;56.37;101742.09;1787488;78;24030;-83
2020/12/09 12:29:52;;;;;;;18.80;9.15;;;;;;;1.42;56.09;101749.56;1853780;76;22645;-82
2020/12/09 12:32:21;;;;;;;11.60;6.05;;;;;;;1.41;55.88;101777.75;1790139;77;21153;-82
2020/12/09 12:34:52;;;;;;;16.50;8.58;;;;;;;1.38;55.90;101754.11;1823974;77;21215;-87
2020/12/09 12:37:20;;;;;;;15.03;8.85;;;;;;;1.36;55.94;101759.91;1783548;77;21180;-83
2020/12/09 12:39:49;;;;;;;13.98;7.80;;;;;;;1.33;56.16;101757.42;1814300;77;21050;-82
2020/12/09 12:42:18;;;;;;;19.30;10.72;;;;;;;1.34;56.10;101758.27;1813390;77;21094;-81
2020/12/09 12:44:48;;;;;;;15.75;9.05;;;;;;;1.35;56.07;101752.91;1825476;77;21180;-83
2020/12/09 12:47:19;;;;;;;14.70;8.85;;;;;;;1.36;56.25;101753.30;1816634;77;21373;-80
2020/12/09 12:49:49;;;;;;;14.30;7.75;;;;;;;1.41;56.25;101752.66;1814195;77;21390;-81
2020/12/09 12:52:17;;;;;;;18.50;10.23;;;;;;;1.46;56.22;101780.19;1816614;77;21157;-80
2020/12/09 12:54:51;;;;;;;16.93;8.83;;;;;;;1.47;56.22;101748.42;1821136;77;21188;-80
2020/12/09 12:57:25;;;;;;;18.50;9.93;;;;;;;1.51;56.05;101753.96;1817259;77;21165;-80
2020/12/09 13:00:00;;;;;;;17.17;9.53;;;;;;;1.55;55.95;101744.59;1819375;77;21355;-80
2020/12/09 13:02:30;;;;;;;12.18;7.40;;;;;;;1.59;55.92;101739.55;1773130;78;21292;-80
2020/12/09 13:04:58;;;;;;;15.55;9.33;;;;;;;1.63;55.86;101745.94;1760347;79;21176;-80
2020/12/09 13:07:29;;;;;;;21.25;8.05;;;;;;;1.60;55.98;101747.88;1819816;77;21220;-81
2020/12/09 13:10:03;;;;;;;20.20;11.48;;;;;;;1.62;55.98;101753.94;1818223;77;21177;-81
2020/12/09 13:12:32;;;;;;;10.48;6.95;;;;;;;1.59;56.09;101747.47;1823215;77;23030;-78
2020/12/09 13:15:00;;;;;;;20.85;11.28;;;;;;;1.61;56.36;101745.63;1815223;77;21166;-78
2020/12/09 13:17:29;;;;;;;19.05;11.70;;;;;;;1.65;56.36;101759.09;1820320;77;21711;-79
2020/12/09 13:19:57;;;;;;;18.20;11.25;;;;;;;1.67;56.27;101758.55;1820365;77;21502;-80
2020/12/09 13:22:25;;;;;;;16.32;10.18;;;;;;;1.67;56.17;101760.72;1809767;77;21172;-79
2020/12/09 13:24:53;;;;;;;19.15;11.28;;;;;;;1.68;56.15;101755.86;1814463;77;22082;-80
2020/12/09 13:27:21;;;;;;;16.37;10.48;;;;;;;1.65;56.02;101752.49;1823934;77;21420;-81
2020/12/09 13:29:51;;;;;;;22.35;11.25;;;;;;;1.64;56.06;101756.06;1821373;77;21413;-80
2020/12/09 13:32:20;;;;;;;21.00;11.35;;;;;;;1.63;55.92;101749.90;1820824;77;21204;-82
2020/12/09 13:34:48;;;;;;;18.32;10.43;;;;;;;1.64;55.91;101742.86;1818663;77;21361;-82
2020/12/09 13:37:18;;;;;;;26.57;12.18;;;;;;;1.69;55.97;101743.50;1824658;77;22173;-81
2020/12/09 13:39:46;;;;;;;20.82;12.82;;;;;;;1.76;55.87;101734.36;1819237;77;22232;-82
2020/12/09 13:42:14;;;;;;;19.15;9.58;;;;;;;1.79;55.84;101756.68;1818042;77;21542;-83
2020/12/09 13:44:42;;;;;;;24.40;11.38;;;;;;;1.76;55.99;101745.77;1814199;77;21030;-79
2020/12/09 13:47:10;;;;;;;18.55;11.15;;;;;;;1.77;56.06;101745.31;1812069;77;21133;-80
2020/12/09 13:49:46;;;;;;;20.48;10.23;;;;;;;1.73;55.88;101735.84;1822387;77;21293;-82
2020/12/09 13:52:14;;;;;;;28.10;12.23;;;;;;;1.77;55.88;101762.48;1823916;77;21204;-81
2020/12/09 13:54:42;;;;;;;19.32;11.38;;;;;;;1.82;55.83;101740.70;1817599;77;21148;-84
2020/12/09 13:57:11;;;;;;;27.87;11.95;;;;;;;1.90;55.69;101742.50;1812528;77;21180;-82
2020/12/09 13:59:53;;;;;;;19.42;9.60;;;;;;;1.95;55.63;101735.24;1819289;77;21173;-82
2020/12/09 14:02:24;;;;;;;20.37;10.58;;;;;;;1.85;55.84;101739.22;1833382;76;21251;-79
2020/12/09 14:04:54;;;;;;;18.40;10.23;;;;;;;1.90;55.72;101742.50;1824519;77;21171;-79
2020/12/09 14:07:22;;;;;;;20.17;9.93;;;;;;;1.91;55.74;101745.56;1805968;77;21161;-81
2020/12/09 14:09:51;;;;;;;18.12;10.00;;;;;;;1.93;55.85;101741.52;1813593;77;21169;-80
2020/12/09 14:12:19;;;;;;;17.75;9.83;;;;;;;1.99;55.85;101746.03;1829808;77;21140;-80
2020/12/09 14:14:46;;;;;;;16.62;8.18;;;;;;;2.05;55.93;101758.13;1816500;78;21749;-81
2020/12/09 14:17:14;;;;;;;13.28;7.50;;;;;;;2.00;56.22;101754.38;1817000;77;21076;-79
2020/12/09 14:19:51;;;;;;;18.17;8.60;;;;;;;2.11;56.09;101758.30;1818760;77;21558;-78
2020/12/09 14:22:46;;;;;;;16.93;7.75;;;;;;;2.08;56.06;101757.96;1824364;77;21173;-80
2020/12/09 14:25:47;;;;;;;16.10;7.87;;;;;;;2.15;56.01;101761.19;1786619;77;21197;-82
2020/12/09 14:28:26;;;;;;;14.63;8.33;;;;;;;2.26;55.84;101765.49;1813762;77;21375;-80
2020/12/09 14:30:53;;;;;;;17.07;9.60;;;;;;;2.32;55.60;101757.72;1803749;77;21232;-79
2020/12/09 14:33:21;;;;;;;14.05;8.05;;;;;;;2.38;55.52;101760.95;1755241;81;21202;-80
2020/12/09 14:35:49;;;;;;;19.35;9.55;;;;;;;2.48;55.39;101750.31;1780617;80;21281;-82
2020/12/09 14:38:17;;;;;;;14.68;8.38;;;;;;;2.57;55.21;101754.30;1742146;80;21219;-80
2020/12/09 14:40:45;;;;;;;13.50;7.62;;;;;;;2.64;55.22;101753.08;1737994;81;21368;-79
2020/12/09 14:43:13;;;;;;;20.48;10.40;;;;;;;2.67;55.11;101758.20;1735326;81;21213;-81
2020/12/09 14:45:44;;;;;;;13.28;7.58;;;;;;;2.70;54.85;101751.91;1739616;80;21393;-81
2020/12/09 14:48:12;;;;;;;14.98;8.45;;;;;;;2.70;54.63;101755.88;1739006;80;21210;-81
2020/12/09 14:50:40;;;;;;;11.88;6.83;;;;;;;2.67;54.67;101752.91;1750990;80;22141;-78
2020/12/09 14:53:08;;;;;;;16.40;7.83;;;;;;;2.72;54.56;101757.50;1739218;81;21685;-80
2020/12/09 14:55:36;;;;;;;15.43;8.13;;;;;;;2.76;54.50;101748.48;1729156;81;21200;-79
2020/12/09 14:58:04;;;;;;;14.03;7.03;;;;;;;2.91;54.34;101745.56;1759806;80;21158;-81